sensor_id;sensor_type;location;lat;lon;timestamp;pressure;altitude;pressure_sealevel;temperature;humidity
22605;BME280;11469;49.024;8.246;2022-08-21T00:02:21;100475.56;;;16.62;70.55
22605;BME280;11469;49.024;8.246;2022-08-21T00:04:47;100465.47;;;16.60;70.32
22605;BME280;11469;49.024;8.246;2022-08-21T00:07:13;100463.50;;;16.65;70.46
22605;BME280;11469;49.024;8.246;2022-08-21T00:09:39;100461.81;;;16.60;70.75
22605;BME280;11469;49.024;8.246;2022-08-21T00:12:05;100463.50;;;16.65;70.81
22605;BME280;11469;49.024;8.246;2022-08-21T00:14:31;100464.31;;;16.65;70.98
22605;BME280;11469;49.024;8.246;2022-08-21T00:16:57;100459.81;;;16.60;70.93
22605;BME280;11469;49.024;8.246;2022-08-21T00:19:23;100461.41;;;16.58;71.30
22605;BME280;11469;49.024;8.246;2022-08-21T00:21:51;100463.03;;;16.59;71.33
22605;BME280;11469;49.024;8.246;2022-08-21T00:24:17;100459.81;;;16.60;71.53
22605;BME280;11469;49.024;8.246;2022-08-21T00:26:43;100459.44;;;16.66;71.40
22605;BME280;11469;49.024;8.246;2022-08-21T00:29:08;100457.78;;;16.61;70.93
22605;BME280;11469;49.024;8.246;2022-08-21T00:31:35;100448.47;;;16.57;69.72
22605;BME280;11469;49.024;8.246;2022-08-21T00:34:00;100451.72;;;16.48;69.58
22605;BME280;11469;49.024;8.246;2022-08-21T00:36:25;100456.97;;;16.43;69.65
22605;BME280;11469;49.024;8.246;2022-08-21T00:38:51;100455.72;;;16.33;70.06
22605;BME280;11469;49.024;8.246;2022-08-21T00:41:16;100454.06;;;16.21;70.33
22605;BME280;11469;49.024;8.246;2022-08-21T00:43:42;100453.25;;;16.21;70.95
22605;BME280;11469;49.024;8.246;2022-08-21T00:46:07;100450.84;;;16.26;71.29
22605;BME280;11469;49.024;8.246;2022-08-21T00:48:33;100453.66;;;16.23;71.09
22605;BME280;11469;49.024;8.246;2022-08-21T00:51:06;100449.63;;;16.20;71.60
22605;BME280;11469;49.024;8.246;2022-08-21T00:53:34;100447.56;;;16.14;71.95
22605;BME280;11469;49.024;8.246;2022-08-21T00:56:01;100447.16;;;16.05;72.36
22605;BME280;11469;49.024;8.246;2022-08-21T00:58:29;100454.00;;;16.00;72.57
22605;BME280;11469;49.024;8.246;2022-08-21T01:00:57;100452.78;;;15.98;72.64
22605;BME280;11469;49.024;8.246;2022-08-21T01:03:25;100444.69;;;15.96;72.57
22605;BME280;11469;49.024;8.246;2022-08-21T01:05:51;100449.94;;;15.94;72.35
22605;BME280;11469;49.024;8.246;2022-08-21T01:08:17;100460.44;;;15.93;72.26
22605;BME280;11469;49.024;8.246;2022-08-21T01:10:44;100458.41;;;15.90;72.66
22605;BME280;11469;49.024;8.246;2022-08-21T01:13:14;100452.66;;;15.73;73.75
22605;BME280;11469;49.024;8.246;2022-08-21T01:15:43;100445.69;;;15.56;75.38
22605;BME280;11469;49.024;8.246;2022-08-21T01:18:11;100446.06;;;15.54;75.42
22605;BME280;11469;49.024;8.246;2022-08-21T01:20:38;100444.03;;;15.51;75.93
22605;BME280;11469;49.024;8.246;2022-08-21T01:23:06;100450.06;;;15.46;76.17
22605;BME280;11469;49.024;8.246;2022-08-21T01:25:33;100444.03;;;15.51;76.24
22605;BME280;11469;49.024;8.246;2022-08-21T01:28:04;100451.69;;;15.51;75.75
22605;BME280;11469;49.024;8.246;2022-08-21T01:30:34;100445.25;;;15.54;76.08
22605;BME280;11469;49.024;8.246;2022-08-21T01:33:01;100440.00;;;15.52;75.74
22605;BME280;11469;49.024;8.246;2022-08-21T01:35:26;100431.91;;;15.47;75.13
22605;BME280;11469;49.024;8.246;2022-08-21T01:37:52;100436.31;;;15.41;75.07
22605;BME280;11469;49.024;8.246;2022-08-21T01:40:18;100437.50;;;15.40;75.22
22605;BME280;11469;49.024;8.246;2022-08-21T01:42:45;100440.72;;;15.39;74.99
22605;BME280;11469;49.024;8.246;2022-08-21T01:45:12;100435.09;;;15.42;75.31
22605;BME280;11469;49.024;8.246;2022-08-21T01:47:38;100439.97;;;15.45;75.17
22605;BME280;11469;49.024;8.246;2022-08-21T01:50:05;100440.75;;;15.42;75.08
22605;BME280;11469;49.024;8.246;2022-08-21T01:52:31;100441.16;;;15.44;75.20
22605;BME280;11469;49.024;8.246;2022-08-21T01:54:57;100440.78;;;15.46;75.50
22605;BME280;11469;49.024;8.246;2022-08-21T01:57:23;100445.22;;;15.47;75.53
22605;BME280;11469;49.024;8.246;2022-08-21T01:59:49;100440.78;;;15.49;75.57
22605;BME280;11469;49.024;8.246;2022-08-21T02:02:14;100442.38;;;15.47;75.21
22605;BME280;11469;49.024;8.246;2022-08-21T02:04:39;100435.50;;;15.41;74.93
22605;BME280;11469;49.024;8.246;2022-08-21T02:07:05;100439.91;;;15.38;74.77
22605;BME280;11469;49.024;8.246;2022-08-21T02:09:32;100429.78;;;15.34;74.78
22605;BME280;11469;49.024;8.246;2022-08-21T02:11:57;100427.34;;;15.28;75.00
22605;BME280;11469;49.024;8.246;2022-08-21T02:14:23;100429.19;;;15.03;76.22
22605;BME280;11469;49.024;8.246;2022-08-21T02:16:49;100424.19;;;14.86;76.91
22605;BME280;11469;49.024;8.246;2022-08-21T02:19:15;100419.34;;;14.83;76.93
22605;BME280;11469;49.024;8.246;2022-08-21T02:21:41;100427.41;;;14.84;77.12
22605;BME280;11469;49.024;8.246;2022-08-21T02:24:07;100425.38;;;14.81;77.32
22605;BME280;11469;49.024;8.246;2022-08-21T02:26:33;100421.63;;;14.70;77.47
22605;BME280;11469;49.024;8.246;2022-08-21T02:28:59;100414.75;;;14.68;77.80
22605;BME280;11469;49.024;8.246;2022-08-21T02:31:24;100421.59;;;14.67;77.54
22605;BME280;11469;49.024;8.246;2022-08-21T02:33:51;100427.25;;;14.67;78.09
22605;BME280;11469;49.024;8.246;2022-08-21T02:36:16;100410.72;;;14.65;78.17
22605;BME280;11469;49.024;8.246;2022-08-21T02:38:42;100421.25;;;14.72;78.61
22605;BME280;11469;49.024;8.246;2022-08-21T02:41:15;100424.09;;;14.75;78.77
22605;BME280;11469;49.024;8.246;2022-08-21T02:43:42;100425.72;;;14.76;78.95
22605;BME280;11469;49.024;8.246;2022-08-21T02:46:10;100424.50;;;14.74;78.81
22605;BME280;11469;49.024;8.246;2022-08-21T02:48:36;100425.69;;;14.73;79.24
22605;BME280;11469;49.024;8.246;2022-08-21T02:51:04;100421.19;;;14.61;78.73
22605;BME280;11469;49.024;8.246;2022-08-21T02:53:31;100424.63;;;14.44;79.89
22605;BME280;11469;49.024;8.246;2022-08-21T02:55:59;100430.97;;;14.37;80.92
22605;BME280;11469;49.024;8.246;2022-08-21T02:58:30;100435.63;;;14.22;81.63
22605;BME280;11469;49.024;8.246;2022-08-21T03:00:56;100431.63;;;14.23;82.00
22605;BME280;11469;49.024;8.246;2022-08-21T03:03:23;100429.13;;;14.18;82.60
22605;BME280;11469;49.024;8.246;2022-08-21T03:05:49;100429.13;;;14.18;83.01
22605;BME280;11469;49.024;8.246;2022-08-21T03:08:16;100425.50;;;14.14;83.36
22605;BME280;11469;49.024;8.246;2022-08-21T03:10:45;100430.25;;;14.07;83.58
22605;BME280;11469;49.024;8.246;2022-08-21T03:13:12;100428.66;;;14.09;83.68
22605;BME280;11469;49.024;8.246;2022-08-21T03:15:38;100431.09;;;14.11;83.63
22605;BME280;11469;49.024;8.246;2022-08-21T03:18:04;100434.69;;;14.08;83.23
22605;BME280;11469;49.024;8.246;2022-08-21T03:20:30;100421.75;;;14.03;82.80
22605;BME280;11469;49.024;8.246;2022-08-21T03:22:57;100426.03;;;13.93;82.53
22605;BME280;11469;49.024;8.246;2022-08-21T03:25:25;100427.59;;;13.87;82.53
22605;BME280;11469;49.024;8.246;2022-08-21T03:27:51;100422.75;;;13.88;82.37
22605;BME280;11469;49.024;8.246;2022-08-21T03:30:18;100434.06;;;13.91;82.74
22605;BME280;11469;49.024;8.246;2022-08-21T03:32:45;100421.94;;;13.87;82.46
22605;BME280;11469;49.024;8.246;2022-08-21T03:35:12;100427.59;;;13.87;82.88
22605;BME280;11469;49.024;8.246;2022-08-21T03:37:38;100434.03;;;13.88;82.96
22605;BME280;11469;49.024;8.246;2022-08-21T03:40:06;100432.06;;;13.92;82.79
22605;BME280;11469;49.024;8.246;2022-08-21T03:42:32;100421.59;;;13.92;82.87
22605;BME280;11469;49.024;8.246;2022-08-21T03:44:57;100425.66;;;13.95;82.73
22605;BME280;11469;49.024;8.246;2022-08-21T03:47:23;100430.00;;;13.89;82.53
22605;BME280;11469;49.024;8.246;2022-08-21T03:49:48;100429.19;;;13.88;82.87
22605;BME280;11469;49.024;8.246;2022-08-21T03:52:15;100423.94;;;13.87;83.02
22605;BME280;11469;49.024;8.246;2022-08-21T03:54:42;100434.38;;;13.83;82.93
22605;BME280;11469;49.024;8.246;2022-08-21T03:57:08;100429.91;;;13.82;83.35
22605;BME280;11469;49.024;8.246;2022-08-21T03:59:35;100433.16;;;13.84;83.33
22605;BME280;11469;49.024;8.246;2022-08-21T04:02:03;100435.97;;;13.84;83.10
22605;BME280;11469;49.024;8.246;2022-08-21T04:04:30;100440.00;;;13.83;83.45
22605;BME280;11469;49.024;8.246;2022-08-21T04:06:56;100439.56;;;13.81;83.23
22605;BME280;11469;49.024;8.246;2022-08-21T04:09:22;100437.84;;;13.73;82.67
22605;BME280;11469;49.024;8.246;2022-08-21T04:11:48;100445.41;;;13.65;82.85
22605;BME280;11469;49.024;8.246;2022-08-21T04:14:14;100444.88;;;13.56;82.87
22605;BME280;11469;49.024;8.246;2022-08-21T04:16:40;100440.78;;;13.50;83.17
22605;BME280;11469;49.024;8.246;2022-08-21T04:19:07;100437.91;;;13.46;83.17
22605;BME280;11469;49.024;8.246;2022-08-21T04:21:32;100436.28;;;13.45;83.25
22605;BME280;11469;49.024;8.246;2022-08-21T04:23:58;100447.47;;;13.42;83.27
22605;BME280;11469;49.024;8.246;2022-08-21T04:26:25;100449.88;;;13.40;83.75
22605;BME280;11469;49.024;8.246;2022-08-21T04:28:51;100448.19;;;13.35;84.04
22605;BME280;11469;49.024;8.246;2022-08-21T04:31:18;100455.06;;;13.38;84.59
22605;BME280;11469;49.024;8.246;2022-08-21T04:33:43;100463.13;;;13.39;84.51
22605;BME280;11469;49.024;8.246;2022-08-21T04:36:10;100454.69;;;13.39;84.66
22605;BME280;11469;49.024;8.246;2022-08-21T04:38:37;100465.19;;;13.42;84.95
22605;BME280;11469;49.024;8.246;2022-08-21T04:41:02;100466.06;;;13.46;84.55
22605;BME280;11469;49.024;8.246;2022-08-21T04:43:28;100463.69;;;13.48;84.40
22605;BME280;11469;49.024;8.246;2022-08-21T04:45:53;100471.25;;;13.44;84.12
22605;BME280;11469;49.024;8.246;2022-08-21T04:48:21;100472.66;;;13.31;84.12
22605;BME280;11469;49.024;8.246;2022-08-21T04:53:27;100479.38;;;13.23;84.95
22605;BME280;11469;49.024;8.246;2022-08-21T04:55:56;100480.09;;;13.16;85.85
22605;BME280;11469;49.024;8.246;2022-08-21T04:58:25;100485.34;;;13.18;85.82
22605;BME280;11469;49.024;8.246;2022-08-21T05:00:54;100490.66;;;13.23;86.12
22605;BME280;11469;49.024;8.246;2022-08-21T05:03:20;100492.97;;;13.17;86.76
22605;BME280;11469;49.024;8.246;2022-08-21T05:05:46;100490.66;;;13.26;86.85
22605;BME280;11469;49.024;8.246;2022-08-21T05:08:15;100494.47;;;13.38;86.86
22605;BME280;11469;49.024;8.246;2022-08-21T05:10:41;100498.53;;;13.40;86.84
22605;BME280;11469;49.024;8.246;2022-08-21T05:13:08;100492.19;;;13.47;86.58
22605;BME280;11469;49.024;8.246;2022-08-21T05:15:33;100499.19;;;13.56;86.76
22605;BME280;11469;49.024;8.246;2022-08-21T05:17:59;100492.91;;;13.67;87.06
22605;BME280;11469;49.024;8.246;2022-08-21T05:20:24;100495.03;;;13.77;86.62
22605;BME280;11469;49.024;8.246;2022-08-21T05:22:50;100495.56;;;13.86;86.16
22605;BME280;11469;49.024;8.246;2022-08-21T05:25:16;100494.47;;;13.94;85.51
22605;BME280;11469;49.024;8.246;2022-08-21T05:27:41;100492.13;;;14.00;85.24
22605;BME280;11469;49.024;8.246;2022-08-21T05:30:07;100495.06;;;14.07;84.88
22605;BME280;11469;49.024;8.246;2022-08-21T05:32:34;100496.72;;;14.11;84.35
22605;BME280;11469;49.024;8.246;2022-08-21T05:35:00;100496.34;;;14.13;84.57
22605;BME280;11469;49.024;8.246;2022-08-21T05:37:25;100498.41;;;14.19;84.20
22605;BME280;11469;49.024;8.246;2022-08-21T05:39:51;100494.00;;;14.22;84.06
22605;BME280;11469;49.024;8.246;2022-08-21T05:42:16;100496.88;;;14.25;84.95
22605;BME280;11469;49.024;8.246;2022-08-21T05:44:42;100498.06;;;14.24;83.83
22605;BME280;11469;49.024;8.246;2022-08-21T05:47:09;100495.22;;;14.21;84.41
22605;BME280;11469;49.024;8.246;2022-08-21T05:49:35;100494.50;;;14.27;84.45
22605;BME280;11469;49.024;8.246;2022-08-21T05:52:01;100495.00;;;14.37;85.53
22605;BME280;11469;49.024;8.246;2022-08-21T05:54:27;100496.91;;;14.59;86.21
22605;BME280;11469;49.024;8.246;2022-08-21T05:56:54;100488.75;;;14.91;87.44
22605;BME280;11469;49.024;8.246;2022-08-21T05:59:19;100493.84;;;15.22;88.09
22605;BME280;11469;49.024;8.246;2022-08-21T06:01:45;100489.66;;;15.53;86.84
22605;BME280;11469;49.024;8.246;2022-08-21T06:04:11;100489.78;;;15.75;83.58
22605;BME280;11469;49.024;8.246;2022-08-21T06:06:37;100502.00;;;15.93;82.46
22605;BME280;11469;49.024;8.246;2022-08-21T06:09:03;100502.06;;;16.11;81.83
22605;BME280;11469;49.024;8.246;2022-08-21T06:11:29;100503.41;;;16.38;80.36
22605;BME280;11469;49.024;8.246;2022-08-21T06:13:54;100509.94;;;16.60;80.11
22605;BME280;11469;49.024;8.246;2022-08-21T06:16:20;100499.53;;;16.89;79.68
22605;BME280;11469;49.024;8.246;2022-08-21T06:18:46;100498.72;;;17.31;78.23
22605;BME280;11469;49.024;8.246;2022-08-21T06:21:12;100503.16;;;17.71;76.73
22605;BME280;11469;49.024;8.246;2022-08-21T06:23:38;100488.47;;;18.01;75.55
22605;BME280;11469;49.024;8.246;2022-08-21T06:26:06;100498.16;;;18.18;73.87
22605;BME280;11469;49.024;8.246;2022-08-21T06:28:32;100500.50;;;18.34;73.79
22605;BME280;11469;49.024;8.246;2022-08-21T06:30:58;100502.41;;;18.58;73.73
22605;BME280;11469;49.024;8.246;2022-08-21T06:33:23;100499.94;;;18.71;72.81
22605;BME280;11469;49.024;8.246;2022-08-21T06:35:49;100505.50;;;18.88;72.81
22605;BME280;11469;49.024;8.246;2022-08-21T06:38:15;100502.50;;;19.06;72.31
22605;BME280;11469;49.024;8.246;2022-08-21T06:40:40;100507.69;;;19.18;71.44
22605;BME280;11469;49.024;8.246;2022-08-21T06:43:11;100497.94;;;19.23;71.21
22605;BME280;11469;49.024;8.246;2022-08-21T06:45:37;100500.03;;;19.12;71.69
22605;BME280;11469;49.024;8.246;2022-08-21T06:48:03;100497.44;;;19.32;71.73
22605;BME280;11469;49.024;8.246;2022-08-21T06:50:29;100504.56;;;19.54;71.49
22605;BME280;11469;49.024;8.246;2022-08-21T06:53:09;100500.84;;;19.61;70.20
22605;BME280;11469;49.024;8.246;2022-08-21T06:55:35;100512.09;;;19.75;70.07
22605;BME280;11469;49.024;8.246;2022-08-21T06:58:00;100500.97;;;19.87;69.35
22605;BME280;11469;49.024;8.246;2022-08-21T07:00:26;100500.56;;;19.85;67.99
22605;BME280;11469;49.024;8.246;2022-08-21T07:02:52;100507.03;;;19.89;67.06
22605;BME280;11469;49.024;8.246;2022-08-21T07:05:17;100498.09;;;19.91;68.26
22605;BME280;11469;49.024;8.246;2022-08-21T07:07:43;100508.53;;;20.01;66.55
22605;BME280;11469;49.024;8.246;2022-08-21T07:10:09;100496.72;;;20.03;66.57
22605;BME280;11469;49.024;8.246;2022-08-21T07:12:34;100500.28;;;19.76;67.31
22605;BME280;11469;49.024;8.246;2022-08-21T07:15:00;100494.44;;;19.91;66.66
22605;BME280;11469;49.024;8.246;2022-08-21T07:17:26;100505.03;;;19.86;66.61
22605;BME280;11469;49.024;8.246;2022-08-21T07:19:51;100506.63;;;19.91;66.85
22605;BME280;11469;49.024;8.246;2022-08-21T07:22:19;100505.41;;;20.26;65.88
22605;BME280;11469;49.024;8.246;2022-08-21T07:24:45;100499.88;;;20.46;64.92
22605;BME280;11469;49.024;8.246;2022-08-21T07:27:10;100499.25;;;20.62;64.21
22605;BME280;11469;49.024;8.246;2022-08-21T07:29:36;100494.84;;;20.84;63.54
22605;BME280;11469;49.024;8.246;2022-08-21T07:32:02;100495.41;;;21.02;62.91
22605;BME280;11469;49.024;8.246;2022-08-21T07:36:52;100486.97;;;21.22;61.60
22605;BME280;11469;49.024;8.246;2022-08-21T07:39:18;100484.78;;;21.30;61.00
22605;BME280;11469;49.024;8.246;2022-08-21T07:41:43;100482.69;;;21.34;60.81
22605;BME280;11469;49.024;8.246;2022-08-21T07:44:09;100479.28;;;21.42;61.72
22605;BME280;11469;49.024;8.246;2022-08-21T07:46:34;100486.78;;;21.56;59.91
22605;BME280;11469;49.024;8.246;2022-08-21T07:48:59;100477.91;;;21.50;60.02
22605;BME280;11469;49.024;8.246;2022-08-21T07:51:27;100484.50;;;21.24;61.49
22605;BME280;11469;49.024;8.246;2022-08-21T07:53:54;100478.47;;;21.42;60.74
22605;BME280;11469;49.024;8.246;2022-08-21T07:56:21;100477.03;;;21.53;59.19
22605;BME280;11469;49.024;8.246;2022-08-21T07:58:47;100481.75;;;21.64;58.56
22605;BME280;11469;49.024;8.246;2022-08-21T08:01:12;100481.00;;;21.60;58.69
22605;BME280;11469;49.024;8.246;2022-08-21T08:03:38;100481.19;;;21.72;57.87
22605;BME280;11469;49.024;8.246;2022-08-21T08:06:05;100480.81;;;21.90;58.15
22605;BME280;11469;49.024;8.246;2022-08-21T08:08:31;100480.88;;;21.67;56.54
22605;BME280;11469;49.024;8.246;2022-08-21T08:10:57;100480.94;;;21.63;57.84
22605;BME280;11469;49.024;8.246;2022-08-21T08:13:23;100479.34;;;21.82;57.22
22605;BME280;11469;49.024;8.246;2022-08-21T08:15:49;100465.13;;;22.02;57.28
22605;BME280;11469;49.024;8.246;2022-08-21T08:18:14;100473.16;;;22.27;56.79
22605;BME280;11469;49.024;8.246;2022-08-21T08:20:40;100462.16;;;22.45;55.45
22605;BME280;11469;49.024;8.246;2022-08-21T08:23:07;100472.34;;;22.46;55.59
22605;BME280;11469;49.024;8.246;2022-08-21T08:25:32;100462.53;;;22.47;54.22
22605;BME280;11469;49.024;8.246;2022-08-21T08:27:57;100470.63;;;22.68;53.67
22605;BME280;11469;49.024;8.246;2022-08-21T08:30:23;100463.03;;;22.78;52.67
22605;BME280;11469;49.024;8.246;2022-08-21T08:32:49;100470.00;;;22.61;51.86
22605;BME280;11469;49.024;8.246;2022-08-21T08:35:15;100462.91;;;22.49;52.68
22605;BME280;11469;49.024;8.246;2022-08-21T08:37:41;100459.41;;;22.41;52.39
22605;BME280;11469;49.024;8.246;2022-08-21T08:40:14;100452.81;;;22.44;51.11
22605;BME280;11469;49.024;8.246;2022-08-21T08:42:43;100448.97;;;22.51;51.08
22605;BME280;11469;49.024;8.246;2022-08-21T08:45:11;100452.44;;;22.42;52.31
22605;BME280;11469;49.024;8.246;2022-08-21T08:47:43;100449.56;;;22.62;52.19
22605;BME280;11469;49.024;8.246;2022-08-21T08:50:23;100443.44;;;22.44;50.32
22605;BME280;11469;49.024;8.246;2022-08-21T08:53:15;100441.44;;;22.77;51.82
22605;BME280;11469;49.024;8.246;2022-08-21T08:55:44;100440.03;;;22.85;48.75
22605;BME280;11469;49.024;8.246;2022-08-21T08:58:20;100433.53;;;23.01;47.65
22605;BME280;11469;49.024;8.246;2022-08-21T09:00:50;100430.78;;;22.97;49.41
22605;BME280;11469;49.024;8.246;2022-08-21T09:03:16;100435.56;;;23.16;48.79
22605;BME280;11469;49.024;8.246;2022-08-21T09:05:48;100423.25;;;23.20;48.07
22605;BME280;11469;49.024;8.246;2022-08-21T09:11:09;100427.88;;;23.30;48.02
22605;BME280;11469;49.024;8.246;2022-08-21T09:27:09;100394.59;;;24.10;48.81
22605;BME280;11469;49.024;8.246;2022-08-21T09:29:39;100395.38;;;24.10;49.35
22605;BME280;11469;49.024;8.246;2022-08-21T09:32:19;100393.09;;;24.18;48.93
22605;BME280;11469;49.024;8.246;2022-08-21T09:37:32;100391.34;;;24.37;48.27
22605;BME280;11469;49.024;8.246;2022-08-21T09:39:58;100379.78;;;24.40;48.50
22605;BME280;11469;49.024;8.246;2022-08-21T09:42:27;100390.06;;;24.63;45.72
22605;BME280;11469;49.024;8.246;2022-08-21T09:45:16;100389.28;;;24.50;45.97
22605;BME280;11469;49.024;8.246;2022-08-21T09:47:42;100385.28;;;24.47;44.61
22605;BME280;11469;49.024;8.246;2022-08-21T09:50:21;100393.72;;;24.64;44.19
22605;BME280;11469;49.024;8.246;2022-08-21T09:52:51;100392.69;;;24.70;43.77
22605;BME280;11469;49.024;8.246;2022-08-21T09:55:38;100395.56;;;24.83;44.69
22605;BME280;11469;49.024;8.246;2022-08-21T09:58:32;100386.63;;;24.94;42.29
22605;BME280;11469;49.024;8.246;2022-08-21T10:01:00;100396.03;;;24.81;42.71
22605;BME280;11469;49.024;8.246;2022-08-21T10:03:26;100386.75;;;24.77;43.02
22605;BME280;11469;49.024;8.246;2022-08-21T10:06:05;100388.00;;;24.89;43.53
22605;BME280;11469;49.024;8.246;2022-08-21T10:08:34;100380.66;;;24.88;41.66
22605;BME280;11469;49.024;8.246;2022-08-21T10:11:15;100384.53;;;25.07;41.59
22605;BME280;11469;49.024;8.246;2022-08-21T10:13:53;100382.94;;;25.06;41.51
22605;BME280;11469;49.024;8.246;2022-08-21T10:24:25;100369.84;;;25.18;42.25
22605;BME280;11469;49.024;8.246;2022-08-21T10:29:35;100366.22;;;25.61;40.53
22605;BME280;11469;49.024;8.246;2022-08-21T10:32:26;100352.19;;;25.75;39.52
22605;BME280;11469;49.024;8.246;2022-08-21T10:46:38;100349.44;;;25.94;40.21
22605;BME280;11469;49.024;8.246;2022-08-21T11:00:18;100331.31;;;26.06;38.59
22605;BME280;11469;49.024;8.246;2022-08-21T11:05:48;100334.28;;;26.24;38.60
22605;BME280;11469;49.024;8.246;2022-08-21T11:08:40;100321.66;;;26.43;38.72
22605;BME280;11469;49.024;8.246;2022-08-21T11:11:17;100320.16;;;26.08;38.57
22605;BME280;11469;49.024;8.246;2022-08-21T11:13:48;100318.47;;;26.20;39.00
22605;BME280;11469;49.024;8.246;2022-08-21T11:19:08;100311.63;;;26.26;39.16
22605;BME280;11469;49.024;8.246;2022-08-21T11:22:04;100309.78;;;26.32;38.28
22605;BME280;11469;49.024;8.246;2022-08-21T11:29:41;100304.53;;;26.89;37.12
22605;BME280;11469;49.024;8.246;2022-08-21T11:32:21;100298.91;;;26.86;37.20
22605;BME280;11469;49.024;8.246;2022-08-21T11:38:00;100306.31;;;27.14;37.20
22605;BME280;11469;49.024;8.246;2022-08-21T11:43:41;100289.88;;;27.33;36.27
22605;BME280;11469;49.024;8.246;2022-08-21T11:51:51;100282.34;;;27.63;35.22
22605;BME280;11469;49.024;8.246;2022-08-21T11:54:41;100290.66;;;27.24;34.83
22605;BME280;11469;49.024;8.246;2022-08-21T11:57:08;100277.22;;;27.03;35.72
22605;BME280;11469;49.024;8.246;2022-08-21T12:00:05;100279.28;;;26.84;35.57
22605;BME280;11469;49.024;8.246;2022-08-21T12:02:38;100281.72;;;27.22;35.43
22605;BME280;11469;49.024;8.246;2022-08-21T12:05:09;100279.00;;;27.37;34.58
22605;BME280;11469;49.024;8.246;2022-08-21T12:07:44;100273.38;;;27.42;34.30
22605;BME280;11469;49.024;8.246;2022-08-21T12:10:19;100269.22;;;26.98;35.14
22605;BME280;11469;49.024;8.246;2022-08-21T12:13:22;100263.47;;;27.43;34.43
22605;BME280;11469;49.024;8.246;2022-08-21T12:15:48;100262.38;;;27.41;34.19
22605;BME280;11469;49.024;8.246;2022-08-21T12:18:30;100254.50;;;27.41;34.39
22605;BME280;11469;49.024;8.246;2022-08-21T12:23:59;100258.97;;;27.70;33.95
22605;BME280;11469;49.024;8.246;2022-08-21T12:29:38;100256.16;;;27.15;33.88
22605;BME280;11469;49.024;8.246;2022-08-21T12:34:36;100250.19;;;27.73;34.36
22605;BME280;11469;49.024;8.246;2022-08-21T12:39:57;100245.06;;;27.68;34.26
22605;BME280;11469;49.024;8.246;2022-08-21T12:42:32;100249.09;;;28.04;33.61
22605;BME280;11469;49.024;8.246;2022-08-21T12:45:04;100241.84;;;28.18;33.66
22605;BME280;11469;49.024;8.246;2022-08-21T12:47:43;100241.22;;;28.14;32.96
22605;BME280;11469;49.024;8.246;2022-08-21T12:50:21;100232.78;;;28.01;33.10
22605;BME280;11469;49.024;8.246;2022-08-21T12:53:00;100242.16;;;28.20;32.88
22605;BME280;11469;49.024;8.246;2022-08-21T12:55:31;100237.31;;;28.35;32.95
22605;BME280;11469;49.024;8.246;2022-08-21T12:57:57;100238.88;;;28.36;32.77
22605;BME280;11469;49.024;8.246;2022-08-21T13:00:25;100235.72;;;28.58;32.82
22605;BME280;11469;49.024;8.246;2022-08-21T13:02:52;100231.75;;;28.55;32.80
22605;BME280;11469;49.024;8.246;2022-08-21T13:05:30;100233.28;;;27.99;32.65
22605;BME280;11469;49.024;8.246;2022-08-21T13:07:57;100233.44;;;27.96;33.20
22605;BME280;11469;49.024;8.246;2022-08-21T13:10:29;100234.00;;;28.18;33.90
22605;BME280;11469;49.024;8.246;2022-08-21T13:12:59;100238.28;;;28.32;32.25
22605;BME280;11469;49.024;8.246;2022-08-21T13:15:29;100225.06;;;28.16;33.13
22605;BME280;11469;49.024;8.246;2022-08-21T13:17:56;100223.75;;;28.50;32.89
22605;BME280;11469;49.024;8.246;2022-08-21T13:20:40;100216.66;;;28.84;32.53
22605;BME280;11469;49.024;8.246;2022-08-21T13:23:28;100213.97;;;29.19;32.40
22605;BME280;11469;49.024;8.246;2022-08-21T13:25:55;100211.69;;;29.23;31.20
22605;BME280;11469;49.024;8.246;2022-08-21T13:28:21;100217.44;;;29.38;30.63
22605;BME280;11469;49.024;8.246;2022-08-21T13:30:50;100212.81;;;29.55;31.13
22605;BME280;11469;49.024;8.246;2022-08-21T13:33:19;100205.97;;;29.67;29.96
22605;BME280;11469;49.024;8.246;2022-08-21T13:38:27;100208.91;;;30.02;29.49
22605;BME280;11469;49.024;8.246;2022-08-21T13:40:57;100204.63;;;30.13;29.13
22605;BME280;11469;49.024;8.246;2022-08-21T13:43:30;100198.44;;;29.90;29.30
22605;BME280;11469;49.024;8.246;2022-08-21T13:45:56;100190.31;;;29.74;30.06
22605;BME280;11469;49.024;8.246;2022-08-21T13:48:25;100200.28;;;29.44;30.32
22605;BME280;11469;49.024;8.246;2022-08-21T13:50:51;100198.78;;;29.48;31.29
22605;BME280;11469;49.024;8.246;2022-08-21T13:55:51;100189.38;;;29.09;31.54
22605;BME280;11469;49.024;8.246;2022-08-21T13:58:28;100186.88;;;29.31;31.56
22605;BME280;11469;49.024;8.246;2022-08-21T14:00:55;100194.84;;;29.07;31.55
22605;BME280;11469;49.024;8.246;2022-08-21T14:03:38;100191.84;;;29.01;31.31
22605;BME280;11469;49.024;8.246;2022-08-21T14:06:22;100179.31;;;29.04;31.64
22605;BME280;11469;49.024;8.246;2022-08-21T14:08:52;100187.63;;;28.88;31.38
22605;BME280;11469;49.024;8.246;2022-08-21T14:11:18;100177.81;;;28.70;31.29
22605;BME280;11469;49.024;8.246;2022-08-21T14:13:48;100168.66;;;28.96;31.58
22605;BME280;11469;49.024;8.246;2022-08-21T14:16:21;100172.06;;;29.09;31.74
22605;BME280;11469;49.024;8.246;2022-08-21T14:21:30;100168.22;;;29.42;30.73
22605;BME280;11469;49.024;8.246;2022-08-21T14:26:56;100158.06;;;29.61;30.49
22605;BME280;11469;49.024;8.246;2022-08-21T14:29:25;100170.00;;;29.68;31.02
22605;BME280;11469;49.024;8.246;2022-08-21T14:31:55;100160.06;;;29.55;30.54
22605;BME280;11469;49.024;8.246;2022-08-21T14:34:22;100160.16;;;29.46;30.54
22605;BME280;11469;49.024;8.246;2022-08-21T14:36:49;100160.56;;;29.53;30.49
22605;BME280;11469;49.024;8.246;2022-08-21T14:39:15;100156.19;;;29.58;30.83
22605;BME280;11469;49.024;8.246;2022-08-21T14:41:41;100151.97;;;29.74;31.36